Time;durP1;ratioP1;P1;durP2;ratioP2;P2;SDS_P1;SDS_P2;PMS_P1;PMS_P2;Temp;Humidity;BMP_temperature;BMP_pressure;BME280_temperature;BME280_humidity;BME280_pressure;Samples;Min_cycle;Max_cycle;Signal;HPM_P1;HPM_P2
2022/07/03 00:00:00;;;;;;;4.95;3.13;;;18.60;99.90;;;;;;9181211;19;20019;-70
2022/07/03 00:03:06;;;;;;;7.05;3.35;;;18.60;99.90;;;;;;9185230;19;20022;-70
2022/07/03 00:06:10;;;;;;;4.60;3.35;;;18.60;99.90;;;;;;9184991;19;20007;-71
2022/07/03 00:09:15;;;;;;;5.28;3.40;;;18.30;99.90;;;;;;9181156;19;20044;-70
2022/07/03 00:12:19;;;;;;;4.93;3.42;;;18.60;99.90;;;;;;9181624;19;20021;-70
2022/07/03 00:15:23;;;;;;;5.00;3.20;;;18.50;99.90;;;;;;9179918;19;20013;-71
2022/07/03 00:18:29;;;;;;;4.82;3.45;;;18.50;99.90;;;;;;9179671;19;20018;-70
2022/07/03 00:21:38;;;;;;;5.70;3.50;;;18.50;99.90;;;;;;9180002;19;20014;-70
2022/07/03 00:24:45;;;;;;;8.23;4.13;;;18.60;99.90;;;;;;9178047;19;20022;-70
2022/07/03 00:27:52;;;;;;;5.65;3.67;;;18.40;99.90;;;;;;9183895;19;20018;-70
2022/07/03 00:31:00;;;;;;;5.68;3.70;;;18.40;99.90;;;;;;9179322;19;20520;-70
2022/07/03 00:34:11;;;;;;;5.85;3.72;;;18.40;99.90;;;;;;9179664;19;20070;-70
2022/07/03 00:37:15;;;;;;;6.85;3.78;;;18.30;99.90;;;;;;9183822;19;20380;-70
2022/07/03 00:40:19;;;;;;;5.88;3.78;;;18.50;99.90;;;;;;9184199;19;20015;-71
2022/07/03 00:43:23;;;;;;;5.63;3.60;;;18.40;99.90;;;;;;9180349;19;20039;-70
2022/07/03 00:46:29;;;;;;;4.30;3.45;;;18.40;99.90;;;;;;9177477;19;20022;-70
2022/07/03 00:49:37;;;;;;;7.07;3.58;;;18.40;99.90;;;;;;9178750;19;20070;-70
2022/07/03 00:52:47;;;;;;;5.32;3.45;;;18.40;99.90;;;;;;9178611;19;20017;-70
2022/07/03 00:55:51;;;;;;;5.95;3.78;;;18.40;99.90;;;;;;9178466;19;20018;-70
2022/07/03 00:58:57;;;;;;;6.07;3.63;;;18.30;99.90;;;;;;9179197;19;20015;-71
2022/07/03 01:02:07;;;;;;;6.93;3.22;;;18.50;99.90;;;;;;9181673;19;20014;-70
2022/07/03 01:05:19;;;;;;;5.03;3.28;;;18.40;99.90;;;;;;9182901;19;20026;-70
2022/07/03 01:08:29;;;;;;;6.15;3.55;;;18.20;99.90;;;;;;9178032;19;20066;-70
2022/07/03 01:11:40;;;;;;;5.78;3.38;;;18.20;99.90;;;;;;9178286;19;20033;-70
2022/07/03 01:14:54;;;;;;;5.15;3.50;;;18.10;99.90;;;;;;9178151;19;20033;-71
2022/07/03 01:18:05;;;;;;;4.75;3.60;;;18.10;99.90;;;;;;9180140;19;20090;-70
2022/07/03 01:21:18;;;;;;;6.15;4.10;;;18.10;99.90;;;;;;9175314;19;20526;-70
2022/07/03 01:24:45;;;;;;;5.90;3.75;;;17.90;99.90;;;;;;9176762;19;20460;-70
2022/07/03 01:28:04;;;;;;;;;;;18.10;99.90;;;;;;9177513;19;20015;-70
2022/07/03 01:31:12;;;;;;;5.30;3.75;;;18.00;99.90;;;;;;9177400;19;20043;-70
2022/07/03 01:34:19;;;;;;;6.90;3.85;;;17.90;99.90;;;;;;9178681;19;20018;-70
2022/07/03 01:37:27;;;;;;;6.95;3.92;;;17.80;99.90;;;;;;9182229;19;20014;-70
2022/07/03 01:40:31;;;;;;;6.18;3.80;;;17.80;99.90;;;;;;9177273;19;20013;-70
2022/07/03 01:43:42;;;;;;;6.03;3.63;;;17.70;99.90;;;;;;9176942;19;20011;-70
2022/07/03 01:46:48;;;;;;;5.57;3.70;;;17.70;99.90;;;;;;9175019;19;20046;-70
2022/07/03 01:49:54;;;;;;;6.72;3.75;;;17.70;99.90;;;;;;9176671;19;20060;-70
2022/07/03 01:53:02;;;;;;;4.73;3.53;;;17.60;99.90;;;;;;9181260;19;20010;-70
2022/07/03 01:56:08;;;;;;;5.00;3.92;;;17.60;99.90;;;;;;9177167;19;20006;-70
2022/07/03 01:59:14;;;;;;;4.30;3.50;;;17.60;99.90;;;;;;9177150;19;20044;-70
2022/07/03 02:02:36;;;;;;;5.72;3.90;;;17.40;99.90;;;;;;9178697;19;20056;-71
2022/07/03 02:05:45;;;;;;;7.97;4.55;;;17.50;99.90;;;;;;9177179;19;20018;-70
2022/07/03 02:08:59;;;;;;;5.95;4.53;;;17.60;99.90;;;;;;9179895;19;20486;-70
2022/07/03 02:12:06;;;;;;;7.80;4.63;;;17.40;99.90;;;;;;9176109;19;20042;-70
2022/07/03 02:15:13;;;;;;;8.50;5.00;;;17.30;99.90;;;;;;9176203;19;20029;-70
2022/07/03 02:18:29;;;;;;;7.97;5.40;;;17.20;99.90;;;;;;9175470;19;20265;-71
2022/07/03 02:21:34;;;;;;;6.55;4.80;;;17.20;99.90;;;;;;9175982;19;20010;-70
2022/07/03 02:24:45;;;;;;;6.35;4.50;;;17.10;99.90;;;;;;9173281;19;20093;-70
2022/07/03 02:27:57;;;;;;;6.63;4.68;;;17.20;99.90;;;;;;9172881;19;20070;-70
2022/07/03 02:31:05;;;;;;;8.45;4.57;;;17.30;99.90;;;;;;9176019;19;20018;-70
2022/07/03 02:34:10;;;;;;;6.28;4.43;;;17.20;99.90;;;;;;9185180;19;20048;-71
2022/07/03 02:37:18;;;;;;;7.32;5.15;;;17.20;99.90;;;;;;9188176;19;20034;-70
2022/07/03 02:40:28;;;;;;;7.43;5.65;;;17.10;99.90;;;;;;9184689;19;20048;-70
2022/07/03 02:43:40;;;;;;;8.20;6.00;;;17.20;99.90;;;;;;9187534;19;20014;-70
2022/07/03 02:46:57;;;;;;;7.80;5.60;;;17.10;99.90;;;;;;9182071;19;20397;-71
2022/07/03 02:50:08;;;;;;;6.97;5.90;;;17.10;99.90;;;;;;9183189;19;20011;-70
2022/07/03 02:53:22;;;;;;;9.77;6.10;;;17.20;99.90;;;;;;9189252;19;20017;-70
2022/07/03 02:56:37;;;;;;;7.95;6.10;;;17.10;99.90;;;;;;9183720;19;20521;-70
2022/07/03 02:59:55;;;;;;;8.80;6.32;;;17.00;99.90;;;;;;9185851;19;20014;-71
2022/07/03 03:03:02;;;;;;;10.15;6.25;;;17.00;99.90;;;;;;9183076;19;20015;-70
2022/07/03 03:06:14;;;;;;;6.22;5.57;;;16.90;99.90;;;;;;9184134;19;20022;-70
2022/07/03 03:09:27;;;;;;;8.73;5.60;;;17.00;99.90;;;;;;9182804;19;20010;-70
2022/07/03 03:12:33;;;;;;;8.38;6.60;;;16.80;99.90;;;;;;9183364;19;20078;-70
2022/07/03 03:15:38;;;;;;;;;;;16.80;99.90;;;;;;9183931;19;20015;-70
2022/07/03 03:18:47;;;;;;;9.45;6.28;;;17.00;99.90;;;;;;9189125;19;19987;-71
2022/07/03 03:22:00;;;;;;;13.02;6.85;;;16.80;99.90;;;;;;9183024;19;20094;-70
2022/07/03 03:25:04;;;;;;;9.35;6.93;;;16.60;99.90;;;;;;9179567;19;20341;-70
2022/07/03 03:28:09;;;;;;;9.60;6.70;;;16.80;99.90;;;;;;9179686;19;20026;-70
2022/07/03 03:31:14;;;;;;;8.57;6.70;;;16.90;99.90;;;;;;9182701;19;20049;-70
2022/07/03 03:34:22;;;;;;;9.35;6.18;;;16.80;99.90;;;;;;9184128;19;20002;-70
2022/07/03 03:37:26;;;;;;;7.15;6.38;;;16.70;99.90;;;;;;9182316;19;20018;-70
2022/07/03 03:40:30;;;;;;;9.77;6.88;;;16.70;99.90;;;;;;9181829;19;20491;-70
2022/07/03 03:43:34;;;;;;;8.18;6.63;;;16.60;99.90;;;;;;9179807;19;20038;-70
2022/07/03 03:46:38;;;;;;;8.35;6.80;;;16.60;99.90;;;;;;9179909;19;20022;-70
2022/07/03 03:49:45;;;;;;;10.77;6.75;;;16.60;99.90;;;;;;9181463;19;20503;-70
2022/07/03 03:52:49;;;;;;;8.00;6.85;;;16.80;99.90;;;;;;9186642;19;20048;-70
2022/07/03 03:56:01;;;;;;;9.25;6.55;;;16.80;99.90;;;;;;9181482;19;20018;-70
2022/07/03 03:59:05;;;;;;;7.57;6.85;;;16.80;99.90;;;;;;9181101;19;20009;-70
2022/07/03 04:02:09;;;;;;;8.30;7.43;;;16.80;99.90;;;;;;9181896;19;20046;-70
2022/07/03 04:05:15;;;;;;;10.60;7.00;;;16.90;99.90;;;;;;9183032;19;20023;-70
2022/07/03 04:08:19;;;;;;;8.30;7.45;;;17.10;99.90;;;;;;9181659;19;20011;-70
2022/07/03 04:11:23;;;;;;;9.10;7.68;;;16.90;99.90;;;;;;9180439;19;20011;-70
2022/07/03 04:14:28;;;;;;;9.43;6.95;;;16.80;99.90;;;;;;9180886;19;20022;-70
2022/07/03 04:17:33;;;;;;;11.05;7.07;;;16.80;99.90;;;;;;9179767;19;20006;-71
2022/07/03 04:20:39;;;;;;;8.25;7.25;;;16.90;99.90;;;;;;9180072;19;20529;-70
2022/07/03 04:23:43;;;;;;;9.68;7.35;;;16.90;99.90;;;;;;9178473;19;20014;-70
2022/07/03 04:26:47;;;;;;;9.27;6.53;;;16.90;99.90;;;;;;9179399;19;20017;-71
2022/07/03 04:29:52;;;;;;;8.23;7.13;;;16.80;99.90;;;;;;9179761;19;20015;-70
2022/07/03 04:32:56;;;;;;;8.13;7.03;;;16.50;99.90;;;;;;9179690;19;20018;-70
2022/07/03 04:36:03;;;;;;;8.88;7.50;;;16.30;99.90;;;;;;9180040;19;20014;-70
2022/07/03 04:39:07;;;;;;;7.43;6.72;;;16.30;99.90;;;;;;9179734;19;20374;-70
2022/07/03 04:42:11;;;;;;;8.65;7.72;;;16.30;99.90;;;;;;9179998;19;20014;-70
2022/07/03 04:45:15;;;;;;;9.77;8.15;;;16.40;99.90;;;;;;9179126;19;20014;-70
2022/07/03 04:48:20;;;;;;;8.57;7.68;;;16.40;99.90;;;;;;9176506;19;20024;-70
2022/07/03 04:51:26;;;;;;;12.57;8.13;;;16.50;99.90;;;;;;9181108;19;20019;-70
2022/07/03 04:54:30;;;;;;;10.80;8.05;;;16.50;99.90;;;;;;9182586;19;20475;-71
2022/07/03 04:57:34;;;;;;;10.38;7.45;;;16.40;99.90;;;;;;9178672;19;20010;-70
2022/07/03 05:00:40;;;;;;;9.95;8.07;;;16.50;99.90;;;;;;9183218;19;20026;-70
2022/07/03 05:03:44;;;;;;;9.27;7.77;;;16.50;99.90;;;;;;9179955;19;20015;-70
2022/07/03 05:06:51;;;;;;;10.52;7.78;;;16.30;99.90;;;;;;9177538;19;20089;-71
2022/07/03 05:09:55;;;;;;;12.43;7.93;;;16.60;99.90;;;;;;9178112;19;20082;-71
2022/07/03 05:12:58;;;;;;;9.77;7.97;;;16.40;99.90;;;;;;9178564;19;20044;-70
2022/07/03 05:16:02;;;;;;;9.15;7.85;;;16.60;99.90;;;;;;9180714;19;20014;-70
2022/07/03 05:19:06;;;;;;;10.65;8.57;;;16.20;99.90;;;;;;9177246;19;20479;-70
2022/07/03 05:22:13;;;;;;;9.93;7.88;;;16.50;99.90;;;;;;9178040;19;20015;-70
2022/07/03 05:25:17;;;;;;;16.27;7.82;;;16.40;99.90;;;;;;9178305;19;20018;-70
2022/07/03 05:28:21;;;;;;;9.68;7.95;;;16.50;99.90;;;;;;9175924;19;20489;-70
2022/07/03 05:31:25;;;;;;;8.32;7.40;;;16.50;99.90;;;;;;9178086;19;20010;-70
2022/07/03 05:34:29;;;;;;;11.65;7.97;;;16.50;99.90;;;;;;9181921;19;20015;-70
2022/07/03 05:37:36;;;;;;;9.43;7.82;;;16.40;99.90;;;;;;9177005;19;20019;-70
2022/07/03 05:40:40;;;;;;;9.63;7.15;;;16.30;99.90;;;;;;9177534;19;20038;-70
2022/07/03 05:43:44;;;;;;;8.65;6.80;;;16.70;99.90;;;;;;9177572;19;20007;-70
2022/07/03 05:46:48;;;;;;;8.07;6.93;;;16.60;99.90;;;;;;9175964;19;20022;-71
2022/07/03 05:49:51;;;;;;;7.90;6.60;;;16.70;99.90;;;;;;9177159;19;20085;-70
2022/07/03 05:52:58;;;;;;;8.93;6.68;;;16.50;99.90;;;;;;9176951;19;20010;-70
2022/07/03 05:56:02;;;;;;;7.35;6.30;;;16.50;99.90;;;;;;9176860;19;20649;-70
2022/07/03 05:59:06;;;;;;;8.27;5.97;;;16.80;99.90;;;;;;9176730;19;20078;-70
2022/07/03 06:02:10;;;;;;;8.88;6.32;;;16.60;99.90;;;;;;9177188;19;20475;-71
2022/07/03 06:05:13;;;;;;;7.55;6.50;;;16.90;99.90;;;;;;9181999;19;20573;-70
2022/07/03 06:08:20;;;;;;;9.98;5.63;;;16.90;99.90;;;;;;9186637;19;20011;-70
2022/07/03 06:11:24;;;;;;;7.57;5.90;;;16.60;99.90;;;;;;9186251;19;20014;-70
2022/07/03 06:14:28;;;;;;;8.60;6.05;;;16.90;99.90;;;;;;9186021;19;20018;-71
2022/07/03 06:17:32;;;;;;;6.65;5.57;;;17.10;99.90;;;;;;9185104;19;20014;-70
2022/07/03 06:20:36;;;;;;;7.90;5.95;;;17.20;99.90;;;;;;9185459;19;20017;-70
2022/07/03 06:23:43;;;;;;;5.82;4.63;;;17.30;99.90;;;;;;9185847;19;20043;-70
2022/07/03 06:26:47;;;;;;;5.57;3.80;;;17.30;99.90;;;;;;9184743;19;20046;-71
2022/07/03 06:29:51;;;;;;;4.15;3.60;;;17.50;99.90;;;;;;9184671;19;20010;-70
2022/07/03 06:32:56;;;;;;;5.93;3.65;;;17.50;99.90;;;;;;9186632;19;20604;-70
2022/07/03 06:36:00;;;;;;;3.60;3.30;;;18.00;99.90;;;;;;9184947;19;20098;-71
2022/07/03 06:39:06;;;;;;;6.85;3.30;;;17.90;99.90;;;;;;9184332;19;20015;-70
2022/07/03 06:42:10;;;;;;;4.45;3.10;;;18.00;99.90;;;;;;9186581;19;20020;-70
2022/07/03 06:45:14;;;;;;;3.97;2.90;;;18.00;99.90;;;;;;9184228;19;20047;-70
2022/07/03 06:48:18;;;;;;;5.45;2.53;;;18.10;99.90;;;;;;9181388;19;20086;-70
2022/07/03 06:51:22;;;;;;;4.28;2.30;;;18.10;99.90;;;;;;9183766;19;20025;-70
2022/07/03 06:54:29;;;;;;;3.95;2.22;;;18.10;99.90;;;;;;9184372;19;20010;-70
2022/07/03 06:57:33;;;;;;;7.43;2.78;;;18.20;99.90;;;;;;9184905;19;20392;-70
2022/07/03 07:00:38;;;;;;;8.00;2.20;;;18.20;99.90;;;;;;9184661;19;20015;-70
2022/07/03 07:03:42;;;;;;;4.53;2.05;;;18.10;99.90;;;;;;9185287;19;20016;-70
2022/07/03 07:06:46;;;;;;;7.97;2.50;;;18.20;99.90;;;;;;9186963;19;20015;-70
2022/07/03 07:09:52;;;;;;;5.63;2.28;;;18.10;99.90;;;;;;9183112;19;20019;-70
2022/07/03 07:12:56;;;;;;;4.30;2.28;;;18.40;99.90;;;;;;9182643;19;20015;-70
2022/07/03 07:16:00;;;;;;;4.07;1.98;;;18.40;99.90;;;;;;9187833;19;20021;-70
2022/07/03 07:19:08;;;;;;;4.65;2.40;;;18.40;99.90;;;;;;9182582;19;20376;-70
2022/07/03 07:22:12;;;;;;;5.15;2.42;;;18.50;99.90;;;;;;9182693;19;20010;-70
2022/07/03 07:25:20;;;;;;;5.18;2.45;;;18.60;99.90;;;;;;9182520;19;20349;-70
2022/07/03 07:28:23;;;;;;;2.95;1.80;;;18.60;99.90;;;;;;9180570;19;20483;-70
2022/07/03 07:31:27;;;;;;;4.35;1.38;;;18.80;99.90;;;;;;9183568;19;20020;-70
2022/07/03 07:34:32;;;;;;;3.88;1.90;;;18.90;99.90;;;;;;9187427;19;20070;-70
2022/07/03 07:37:36;;;;;;;3.55;1.58;;;19.00;99.90;;;;;;9182416;19;20026;-71
2022/07/03 07:40:42;;;;;;;3.83;1.70;;;19.10;99.90;;;;;;9181908;19;20787;-70
2022/07/03 07:43:46;;;;;;;;;;;19.10;99.90;;;;;;9182909;19;20018;-70
2022/07/03 07:46:52;;;;;;;2.35;1.50;;;19.10;99.90;;;;;;9180560;19;20319;-71
2022/07/03 07:49:56;;;;;;;4.70;1.73;;;18.90;99.90;;;;;;9185846;19;20105;-71
2022/07/03 07:53:00;;;;;;;4.45;1.55;;;19.00;99.90;;;;;;9181053;19;20082;-70
2022/07/03 07:56:07;;;;;;;3.97;1.63;;;18.90;99.90;;;;;;9181516;19;20011;-70
2022/07/03 07:59:11;;;;;;;4.75;1.90;;;19.00;99.90;;;;;;9181005;19;20011;-70
2022/07/03 08:05:38;;;;;;;4.13;2.00;;;19.10;99.90;;;;;;9182289;19;20076;-70
2022/07/03 08:08:42;;;;;;;7.88;1.98;;;19.10;99.90;;;;;;9177202;19;20011;-70
2022/07/03 08:11:48;;;;;;;3.03;1.90;;;19.20;99.90;;;;;;9180886;19;20107;-70
2022/07/03 08:14:52;;;;;;;3.95;1.70;;;19.20;99.90;;;;;;9180172;19;20078;-71
2022/07/03 08:17:56;;;;;;;2.60;1.88;;;19.10;99.90;;;;;;9180082;19;20017;-70
2022/07/03 08:21:00;;;;;;;3.75;2.20;;;19.30;99.90;;;;;;9178073;19;20416;-70
2022/07/03 08:24:04;;;;;;;3.72;1.85;;;19.30;99.90;;;;;;9183459;19;20486;-70
2022/07/03 08:27:11;;;;;;;2.65;1.83;;;19.50;99.90;;;;;;9179348;19;20297;-69
2022/07/03 08:30:17;;;;;;;5.95;2.35;;;19.50;99.90;;;;;;9180867;19;20475;-70
2022/07/03 08:33:21;;;;;;;3.55;1.85;;;19.50;99.90;;;;;;9185202;19;20790;-69
2022/07/03 08:36:26;;;;;;;4.15;2.00;;;19.50;99.90;;;;;;9179382;19;20536;-69
2022/07/03 08:39:29;;;;;;;4.82;1.90;;;19.50;99.90;;;;;;9182430;19;20015;-69
2022/07/03 08:42:39;;;;;;;4.25;1.85;;;19.40;99.90;;;;;;9180817;19;20010;-70
2022/07/03 08:45:44;;;;;;;4.75;2.03;;;19.60;99.90;;;;;;9180458;19;20042;-69
2022/07/03 08:48:49;;;;;;;3.08;2.17;;;19.70;99.90;;;;;;9176451;19;20014;-69
2022/07/03 08:51:55;;;;;;;3.65;2.10;;;19.40;99.90;;;;;;9178680;19;20389;-69
2022/07/03 08:54:59;;;;;;;4.30;1.80;;;19.50;99.90;;;;;;9178293;19;20385;-69
2022/07/03 08:58:08;;;;;;;4.72;2.00;;;19.80;99.90;;;;;;9183511;19;20018;-69
2022/07/03 09:01:12;;;;;;;6.22;2.30;;;19.70;99.90;;;;;;9182580;19;20475;-69
2022/07/03 09:04:20;;;;;;;4.22;2.15;;;19.80;99.90;;;;;;9178879;19;20010;-69
2022/07/03 09:07:26;;;;;;;3.33;2.00;;;19.80;99.90;;;;;;9177723;19;20493;-69
2022/07/03 09:10:31;;;;;;;5.18;2.28;;;19.80;99.90;;;;;;9178884;19;20034;-69
2022/07/03 09:13:37;;;;;;;7.10;2.00;;;19.70;99.90;;;;;;9179554;19;20475;-69
2022/07/03 09:16:41;;;;;;;4.40;2.00;;;19.70;99.90;;;;;;9177659;19;20018;-69
2022/07/03 09:19:47;;;;;;;4.43;2.10;;;19.90;99.90;;;;;;9177602;19;20014;-69
2022/07/03 09:22:51;;;;;;;4.03;2.08;;;19.90;99.90;;;;;;9177810;19;20022;-69
2022/07/03 09:25:59;;;;;;;3.65;1.83;;;19.70;99.90;;;;;;9177504;19;20031;-69
2022/07/03 09:29:09;;;;;;;5.30;1.88;;;19.70;99.90;;;;;;9176633;19;20078;-69
2022/07/03 09:32:12;;;;;;;5.75;2.17;;;19.60;99.90;;;;;;9182052;19;20156;-69
2022/07/03 09:35:21;;;;;;;5.28;2.03;;;19.70;99.90;;;;;;9177846;19;20011;-69
2022/07/03 09:38:26;;;;;;;6.45;2.00;;;19.90;99.90;;;;;;9178472;19;20014;-69
2022/07/03 09:41:30;;;;;;;4.82;2.50;;;19.80;99.90;;;;;;9183484;19;20018;-69
2022/07/03 09:44:40;;;;;;;4.07;2.28;;;19.70;99.90;;;;;;9187172;19;20029;-69
2022/07/03 09:47:44;;;;;;;6.13;2.50;;;18.70;99.90;;;;;;9185799;19;20019;-69
2022/07/03 09:50:48;;;;;;;3.13;2.40;;;19.70;99.90;;;;;;9182668;19;20010;-69
2022/07/03 09:54:00;;;;;;;3.80;2.28;;;19.70;99.90;;;;;;9183384;19;20011;-69
2022/07/03 09:57:04;;;;;;;4.60;2.40;;;20.10;99.90;;;;;;9182328;19;20015;-69
2022/07/03 10:00:15;;;;;;;6.30;2.50;;;19.80;99.90;;;;;;9187116;19;20356;-69
2022/07/03 10:03:23;;;;;;;6.07;2.80;;;19.70;99.90;;;;;;9183593;19;20011;-69
2022/07/03 10:06:28;;;;;;;6.00;2.50;;;19.90;99.90;;;;;;9187543;19;20341;-70
2022/07/03 10:09:33;;;;;;;4.25;2.20;;;20.00;99.90;;;;;;9180001;19;20043;-69
2022/07/03 10:12:37;;;;;;;4.45;2.40;;;20.10;99.90;;;;;;9181753;19;20007;-69
2022/07/03 10:15:45;;;;;;;5.85;2.10;;;20.20;99.90;;;;;;9181902;19;20007;-69
2022/07/03 10:18:50;;;;;;;5.70;1.92;;;20.20;99.90;;;;;;9181517;19;20014;-69
2022/07/03 10:21:56;;;;;;;3.67;2.15;;;20.30;99.90;;;;;;9184330;19;20025;-69
2022/07/03 10:25:02;;;;;;;5.78;2.28;;;20.40;99.90;;;;;;9179266;19;20006;-69
2022/07/03 10:28:07;;;;;;;5.67;2.40;;;20.50;99.90;;;;;;9180795;19;20420;-69
2022/07/03 10:31:16;;;;;;;7.07;3.10;;;20.30;99.90;;;;;;9186745;19;20015;-69
2022/07/03 10:34:21;;;;;;;7.53;2.65;;;20.70;99.90;;;;;;9181035;19;20011;-69
2022/07/03 10:37:31;;;;;;;7.63;2.75;;;20.50;99.90;;;;;;9181247;19;20425;-69
2022/07/03 10:47:47;;;;;;;6.20;1.88;;;20.90;99.90;;;;;;9034143;19;2886948;-70
2022/07/03 10:51:14;;;;;;;3.92;1.85;;;21.00;99.30;;;;;;9183733;19;20471;-70
2022/07/03 10:54:20;;;;;;;2.42;1.60;;;21.10;98.50;;;;;;9183518;19;20022;-69
2022/07/03 10:57:24;;;;;;;4.25;1.60;;;21.10;98.60;;;;;;9188494;19;20084;-70
2022/07/03 11:00:27;;;;;;;4.95;1.45;;;21.20;98.00;;;;;;9188636;19;20014;-70
2022/07/03 11:03:57;;;;;;;3.92;1.35;;;21.10;98.10;;;;;;9183439;19;20007;-71
2022/07/03 11:07:16;;;;;;;2.92;1.40;;;21.40;98.00;;;;;;9183789;19;20017;-70
2022/07/03 11:10:40;;;;;;;3.97;1.48;;;21.40;98.10;;;;;;9180638;19;20066;-69
2022/07/03 11:14:17;;;;;;;3.72;1.50;;;21.70;97.10;;;;;;9187197;19;20007;-69
2022/07/03 11:17:21;;;;;;;3.78;1.40;;;21.70;96.10;;;;;;9183200;19;20015;-69
2022/07/03 11:20:28;;;;;;;3.30;1.40;;;21.80;97.00;;;;;;9182585;19;20018;-69
2022/07/03 11:23:43;;;;;;;3.45;1.35;;;21.90;96.40;;;;;;9181607;19;20022;-69
2022/07/03 11:26:46;;;;;;;4.43;1.30;;;21.70;96.80;;;;;;9182373;19;20606;-69
2022/07/03 11:29:59;;;;;;;3.28;1.38;;;21.90;96.50;;;;;;9182328;19;20006;-70
2022/07/03 11:33:03;;;;;;;2.35;1.20;;;22.00;95.60;;;;;;9182006;19;20070;-69
2022/07/03 11:36:08;;;;;;;3.13;0.98;;;22.10;96.30;;;;;;9181971;19;20364;-69
2022/07/03 11:39:16;;;;;;;2.15;1.25;;;22.50;95.80;;;;;;9184548;19;20047;-69
2022/07/03 11:42:21;;;;;;;1.42;1.00;;;22.50;94.70;;;;;;9183528;19;20614;-69
2022/07/03 11:45:25;;;;;;;3.25;1.10;;;22.50;94.40;;;;;;9182217;19;20016;-69
2022/07/03 11:48:30;;;;;;;1.63;1.05;;;22.50;93.60;;;;;;9185096;19;20015;-70
2022/07/03 11:51:34;;;;;;;1.98;0.88;;;22.40;93.70;;;;;;9181222;19;20487;-69
2022/07/03 11:54:56;;;;;;;2.13;1.00;;;22.50;93.80;;;;;;9181410;19;20027;-69
2022/07/03 11:58:00;;;;;;;3.42;1.20;;;22.40;92.10;;;;;;9184119;19;20006;-69
2022/07/03 12:01:04;;;;;;;2.67;0.88;;;22.40;92.50;;;;;;9181369;19;20498;-69
2022/07/03 12:04:10;;;;;;;2.15;1.00;;;22.50;92.20;;;;;;9181360;19;20039;-69
2022/07/03 12:07:14;;;;;;;3.10;0.90;;;22.50;92.30;;;;;;9180485;19;20022;-70
2022/07/03 12:10:21;;;;;;;1.58;1.00;;;22.70;92.00;;;;;;9178643;19;20011;-69
2022/07/03 12:13:25;;;;;;;1.02;0.90;;;22.70;89.80;;;;;;9180592;19;20467;-69
2022/07/03 12:16:35;;;;;;;1.60;0.90;;;22.70;90.00;;;;;;9179840;19;20341;-70
2022/07/03 12:19:39;;;;;;;3.05;0.98;;;22.70;89.60;;;;;;9179357;19;20077;-70
2022/07/03 12:22:47;;;;;;;2.33;0.93;;;22.60;91.30;;;;;;9185648;19;20002;-69
2022/07/03 12:25:54;;;;;;;2.22;1.00;;;23.10;91.30;;;;;;9180975;19;20027;-69
2022/07/03 12:28:59;;;;;;;2.20;1.00;;;23.30;91.30;;;;;;9179336;19;20017;-70
2022/07/03 12:32:03;;;;;;;3.72;1.23;;;23.50;91.70;;;;;;9180251;19;20038;-69
2022/07/03 12:35:08;;;;;;;2.40;1.20;;;23.50;90.50;;;;;;9179766;19;20006;-70
2022/07/03 12:38:12;;;;;;;4.07;1.20;;;23.20;90.40;;;;;;9181069;19;20380;-70
2022/07/03 12:41:19;;;;;;;2.03;1.00;;;23.30;89.60;;;;;;9183761;19;20010;-69
2022/07/03 12:44:24;;;;;;;3.30;1.17;;;23.60;90.00;;;;;;9179325;19;20037;-70
2022/07/03 12:47:29;;;;;;;4.32;1.52;;;23.40;88.30;;;;;;9177948;19;20368;-70
2022/07/03 12:50:51;;;;;;;5.95;1.50;;;23.40;88.30;;;;;;9177400;19;20081;-70
2022/07/03 12:53:57;;;;;;;3.80;1.10;;;23.70;86.60;;;;;;9179394;19;20502;-70
2022/07/03 13:00:26;;;;;;;2.92;1.30;;;23.80;85.80;;;;;;9177789;19;20022;-70
2022/07/03 13:03:31;;;;;;;3.50;1.20;;;24.10;86.40;;;;;;9178141;19;20015;-70
2022/07/03 13:06:35;;;;;;;5.25;0.93;;;24.40;84.50;;;;;;9178397;19;20484;-70
2022/07/03 13:09:41;;;;;;;1.92;1.10;;;24.30;82.10;;;;;;9178158;19;20014;-70
2022/07/03 13:12:52;;;;;;;2.75;1.10;;;24.20;83.30;;;;;;9178257;19;20373;-69
2022/07/03 13:15:56;;;;;;;6.75;3.30;;;23.90;85.00;;;;;;9177962;19;20015;-70
2022/07/03 13:19:02;;;;;;;2.28;1.30;;;23.70;84.20;;;;;;9177466;19;20552;-70
2022/07/03 13:22:06;;;;;;;4.80;1.17;;;23.50;84.00;;;;;;9177782;19;20013;-70
2022/07/03 13:25:11;;;;;;;6.43;2.20;;;23.70;84.40;;;;;;9176555;19;20659;-70
2022/07/03 13:28:18;;;;;;;7.40;1.75;;;23.40;90.70;;;;;;9178076;19;20011;-69
2022/07/03 13:31:22;;;;;;;5.80;1.80;;;23.40;93.70;;;;;;9182417;19;20022;-70
2022/07/03 13:34:26;;;;;;;6.25;1.73;;;23.60;93.40;;;;;;9176598;19;20037;-70
2022/07/03 13:37:30;;;;;;;7.63;1.60;;;23.20;93.90;;;;;;9177180;19;20015;-70
2022/07/03 13:40:34;;;;;;;4.88;1.48;;;22.90;95.20;;;;;;9177563;19;20011;-70
2022/07/03 13:43:40;;;;;;;6.40;1.60;;;23.00;95.70;;;;;;9176443;19;20007;-70
2022/07/03 13:46:45;;;;;;;7.68;2.47;;;23.60;95.60;;;;;;9180544;19;20043;-69
2022/07/03 13:49:49;;;;;;;9.98;2.45;;;24.40;96.50;;;;;;9174939;19;20018;-70
2022/07/03 13:52:53;;;;;;;9.23;2.50;;;24.60;96.90;;;;;;9176581;19;20011;-70
2022/07/03 13:55:58;;;;;;;8.20;2.17;;;24.60;96.90;;;;;;9181426;19;20026;-70
2022/07/03 13:59:05;;;;;;;7.93;2.60;;;24.50;97.00;;;;;;9176474;19;20039;-70
2022/07/03 14:02:09;;;;;;;;;;;24.00;97.20;;;;;;9177803;19;20372;-70
2022/07/03 14:05:13;;;;;;;7.50;2.20;;;23.60;97.60;;;;;;9176042;19;20064;-70
2022/07/03 14:08:17;;;;;;;5.50;2.15;;;23.20;98.30;;;;;;9177399;19;20023;-70
2022/07/03 14:11:21;;;;;;;6.03;2.38;;;23.60;98.50;;;;;;9177440;19;20015;-69
2022/07/03 14:14:27;;;;;;;5.20;1.60;;;23.80;98.00;;;;;;9173999;19;20011;-70
2022/07/03 14:17:31;;;;;;;5.63;1.63;;;23.30;98.40;;;;;;9175951;19;20006;-70
2022/07/03 14:20:35;;;;;;;5.28;1.80;;;23.20;98.40;;;;;;9179331;19;20011;-70
2022/07/03 14:23:39;;;;;;;3.20;1.40;;;23.00;98.90;;;;;;9175278;19;20015;-70
2022/07/03 14:33:19;;;;;;;5.00;1.98;;;22.60;98.50;;;;;;9184349;19;20014;-70
2022/07/03 14:36:24;;;;;;;3.60;1.58;;;22.30;98.90;;;;;;9185322;19;20014;-70
2022/07/03 14:39:27;;;;;;;8.40;3.42;;;22.30;99.50;;;;;;9183415;19;20021;-70
2022/07/03 14:42:31;;;;;;;4.97;1.80;;;22.20;99.10;;;;;;9183312;19;20006;-70
2022/07/03 14:45:38;;;;;;;7.45;2.30;;;21.80;99.30;;;;;;9183825;19;20078;-70
2022/07/03 14:48:43;;;;;;;6.68;3.10;;;21.60;99.70;;;;;;9181152;19;20015;-70
2022/07/03 14:51:47;;;;;;;11.23;3.58;;;21.70;99.90;;;;;;9183627;19;20357;-70
2022/07/03 14:54:53;;;;;;;8.40;3.50;;;21.50;99.90;;;;;;9186160;19;20075;-70
2022/07/03 14:58:06;;;;;;;5.05;2.78;;;21.20;99.90;;;;;;9183544;19;20099;-70
2022/07/03 15:01:13;;;;;;;3.53;1.48;;;20.90;99.90;;;;;;9183101;19;20015;-70
2022/07/03 15:04:22;;;;;;;9.00;3.30;;;19.60;99.90;;;;;;9183033;19;20010;-70
2022/07/03 15:07:27;;;;;;;4.55;1.42;;;18.90;99.90;;;;;;9182821;19;20011;-70
2022/07/03 15:10:35;;;;;;;8.20;2.80;;;18.50;99.90;;;;;;9182385;19;20079;-71
2022/07/03 15:13:39;;;;;;;4.43;1.50;;;18.20;99.90;;;;;;9182014;19;20014;-70
2022/07/03 15:16:46;;;;;;;3.03;1.27;;;18.10;99.90;;;;;;9182011;19;20021;-70
2022/07/03 15:19:52;;;;;;;3.75;1.75;;;18.40;99.90;;;;;;9186128;19;20086;-70
2022/07/03 15:22:56;;;;;;;2.40;1.50;;;18.40;99.90;;;;;;9187537;19;20022;-70
2022/07/03 15:26:01;;;;;;;4.07;1.67;;;18.40;99.90;;;;;;9183769;19;20014;-71
2022/07/03 15:29:06;;;;;;;2.70;1.70;;;18.30;99.90;;;;;;9185897;19;20014;-71
2022/07/03 15:32:14;;;;;;;3.45;1.63;;;18.40;99.90;;;;;;9182186;19;20491;-71
2022/07/03 15:35:18;;;;;;;4.68;2.30;;;18.60;99.90;;;;;;9182243;19;20010;-71
2022/07/03 15:38:26;;;;;;;4.68;2.25;;;18.60;99.90;;;;;;9180709;19;20010;-71
2022/07/03 15:41:44;;;;;;;2.17;1.58;;;18.70;99.90;;;;;;9180381;19;20016;-71
2022/07/03 15:45:01;;;;;;;3.92;1.80;;;18.60;99.90;;;;;;9184184;19;20019;-71
2022/07/03 15:48:18;;;;;;;5.60;2.50;;;19.00;99.90;;;;;;9179723;19;20479;-70
2022/07/03 15:51:25;;;;;;;3.15;2.00;;;19.70;99.90;;;;;;9179618;19;20011;-72
2022/07/03 15:54:37;;;;;;;3.70;2.08;;;20.20;99.90;;;;;;9181224;19;20490;-71
2022/07/03 15:57:50;;;;;;;9.10;4.07;;;20.90;99.90;;;;;;9181522;19;20388;-70
2022/07/03 16:04:24;;;;;;;10.52;3.88;;;20.70;99.90;;;;;;9180253;19;20022;-70
2022/07/03 16:07:31;;;;;;;3.17;1.90;;;21.00;99.90;;;;;;9180714;19;20039;-71
2022/07/03 16:10:37;;;;;;;3.13;1.90;;;21.40;99.90;;;;;;9180791;19;20498;-70
2022/07/03 16:13:42;;;;;;;3.25;1.55;;;21.50;99.90;;;;;;9180770;19;20014;-70
2022/07/03 16:16:47;;;;;;;2.33;1.13;;;21.30;99.90;;;;;;9180349;19;20020;-71
2022/07/03 16:19:53;;;;;;;2.55;1.40;;;21.20;99.90;;;;;;9183861;19;20358;-71
2022/07/03 16:22:59;;;;;;;3.53;1.45;;;21.20;99.90;;;;;;9183945;19;20086;-71
2022/07/03 16:26:04;;;;;;;9.50;3.35;;;21.10;99.90;;;;;;9179934;19;20021;-71
2022/07/03 16:29:08;;;;;;;3.67;1.95;;;21.10;99.90;;;;;;9179528;19;20014;-72
2022/07/03 16:32:18;;;;;;;3.45;1.63;;;20.60;99.90;;;;;;9179457;19;20003;-71
2022/07/03 16:35:32;;;;;;;5.75;2.30;;;20.30;99.90;;;;;;9178566;19;20014;-71